createdAt,value
2023-06-14T00:00:46.035Z,510.00
2023-06-14T00:01:46.051Z,512.00
2023-06-14T00:02:46.150Z,511.00
2023-06-14T00:03:46.073Z,512.00
2023-06-14T00:04:46.016Z,512.00
2023-06-14T00:05:45.004Z,508.00
2023-06-14T00:06:44.983Z,503.00
2023-06-14T00:07:45.988Z,505.00
2023-06-14T00:08:45.969Z,504.00
2023-06-14T00:09:45.949Z,503.00
2023-06-14T00:10:44.960Z,504.00
2023-06-14T00:11:44.980Z,502.00
2023-06-14T00:12:45.950Z,502.00
2023-06-14T00:13:45.961Z,502.00
2023-06-14T00:14:45.925Z,501.00
2023-06-14T00:15:45.921Z,498.00
2023-06-14T00:16:46.009Z,501.00
2023-06-14T00:17:45.960Z,501.00
2023-06-14T00:18:44.901Z,499.00
2023-06-14T00:19:44.907Z,499.00
2023-06-14T00:20:44.898Z,499.00
2023-06-14T00:21:45.896Z,497.00
2023-06-14T00:22:45.888Z,497.00
2023-06-14T00:23:45.937Z,498.00
2023-06-14T00:24:45.885Z,500.00
2023-06-14T00:25:45.911Z,498.00
2023-06-14T00:26:45.945Z,497.00
2023-06-14T00:27:45.012Z,497.00
2023-06-14T00:28:46.047Z,500.00
2023-06-14T00:29:46.128Z,497.00
2023-06-14T00:30:46.095Z,502.00
2023-06-14T00:31:45.201Z,504.00
2023-06-14T00:32:46.227Z,504.00
2023-06-14T00:33:46.272Z,504.00
2023-06-14T00:34:45.277Z,494.00
2023-06-14T00:35:46.341Z,495.00
2023-06-14T00:36:46.356Z,495.00
2023-06-14T00:37:45.424Z,496.00
2023-06-14T00:38:46.469Z,498.00
2023-06-14T00:39:45.515Z,496.00
2023-06-14T00:40:46.560Z,493.00
2023-06-14T00:41:46.585Z,494.00
2023-06-14T00:42:46.756Z,496.00
2023-06-14T00:43:46.697Z,495.00
2023-06-14T00:44:46.734Z,496.00
2023-06-14T00:45:46.785Z,496.00
2023-06-14T00:46:46.922Z,495.00
2023-06-14T00:47:46.895Z,495.00
2023-06-14T00:48:46.930Z,493.00
2023-06-14T00:49:46.951Z,491.00
2023-06-14T00:50:47.052Z,492.00
2023-06-14T00:51:47.068Z,493.00
2023-06-14T00:52:47.100Z,499.00
2023-06-14T00:53:46.166Z,500.00
2023-06-14T00:54:47.198Z,499.00
2023-06-14T00:55:47.246Z,497.00
2023-06-14T00:56:47.297Z,495.00
2023-06-14T00:57:46.388Z,492.00
2023-06-14T00:58:46.399Z,489.00
2023-06-14T00:59:47.486Z,490.00
2023-06-14T01:00:47.518Z,492.00
2023-06-14T01:01:47.658Z,493.00
2023-06-14T01:02:47.669Z,495.00
2023-06-14T01:03:47.701Z,493.00
2023-06-14T01:04:47.684Z,495.00
2023-06-14T01:05:46.743Z,496.00
2023-06-14T01:06:47.788Z,496.00
2023-06-14T01:07:47.898Z,498.00
2023-06-14T01:08:46.900Z,499.00
2023-06-14T01:09:46.968Z,500.00
2023-06-14T01:10:48.007Z,499.00
2023-06-14T01:11:48.045Z,496.00
2023-06-14T01:12:48.103Z,494.00
2023-06-14T01:13:47.184Z,494.00
2023-06-14T01:14:48.226Z,496.00
2023-06-14T01:15:47.303Z,499.00
2023-06-14T01:16:47.353Z,494.00
2023-06-14T01:17:48.399Z,492.00
2023-06-14T01:18:48.452Z,495.00
2023-06-14T01:19:48.518Z,495.00
2023-06-14T01:20:48.569Z,496.00
2023-06-14T01:21:48.600Z,496.00
2023-06-14T01:22:47.687Z,493.00
2023-06-14T01:23:48.740Z,492.00
2023-06-14T01:24:48.760Z,490.00
2023-06-14T01:25:48.868Z,492.00
2023-06-14T01:26:47.870Z,491.00
2023-06-14T01:27:47.971Z,494.00
2023-06-14T01:28:48.996Z,496.00
2023-06-14T01:29:49.058Z,497.00
2023-06-14T01:30:48.126Z,498.00
2023-06-14T01:31:48.195Z,497.00
2023-06-14T01:32:49.315Z,498.00
2023-06-14T01:33:49.295Z,499.00
2023-06-14T01:34:49.513Z,496.00
2023-06-14T01:35:49.426Z,496.00
2023-06-14T01:36:49.495Z,500.00
2023-06-14T01:37:48.584Z,500.00
2023-06-14T01:38:49.612Z,499.00
2023-06-14T01:39:49.690Z,496.00
2023-06-14T01:40:49.786Z,491.00
2023-06-14T01:41:49.818Z,490.00
2023-06-14T01:42:49.881Z,492.00
2023-06-14T01:43:49.930Z,495.00
2023-06-14T01:44:48.997Z,492.00
2023-06-14T01:45:49.091Z,493.00
2023-06-14T01:46:50.132Z,495.00
2023-06-14T01:47:49.270Z,497.00
2023-06-14T01:48:50.257Z,493.00
2023-06-14T01:49:50.318Z,496.00
2023-06-14T01:50:49.389Z,493.00
2023-06-14T01:51:50.457Z,494.00
2023-06-14T01:52:50.524Z,494.00
2023-06-14T01:53:49.598Z,495.00
2023-06-14T01:54:50.645Z,493.00
2023-06-14T01:55:50.657Z,496.00
2023-06-14T01:56:50.699Z,496.00
2023-06-14T01:57:50.746Z,497.00
2023-06-14T01:58:49.773Z,501.00
2023-06-14T01:59:49.800Z,504.00
2023-06-14T02:00:50.844Z,503.00
2023-06-14T02:01:49.938Z,504.00
2023-06-14T02:02:51.053Z,500.00
2023-06-14T02:03:51.058Z,501.00
2023-06-14T02:04:51.017Z,497.00
2023-06-14T02:05:51.107Z,494.00
2023-06-14T02:06:50.143Z,494.00
2023-06-14T02:07:50.158Z,498.00
2023-06-14T02:08:51.240Z,496.00
2023-06-14T02:09:50.227Z,494.00
2023-06-14T02:10:51.294Z,491.00
2023-06-14T02:11:51.318Z,494.00
2023-06-14T02:12:51.397Z,493.00
2023-06-14T02:13:50.409Z,492.00
2023-06-14T02:14:51.472Z,493.00
2023-06-14T02:15:51.572Z,495.00
2023-06-14T02:16:51.545Z,492.00
2023-06-14T02:17:51.659Z,493.00
2023-06-14T02:18:51.662Z,494.00
2023-06-14T02:19:51.768Z,488.00
2023-06-14T02:20:51.756Z,491.00
2023-06-14T02:21:51.798Z,496.00
2023-06-14T02:22:51.868Z,495.00
2023-06-14T02:23:51.956Z,496.00
2023-06-14T02:24:59.394Z,496.00
2023-06-14T02:25:51.990Z,494.00
2023-06-14T02:26:50.962Z,492.00
2023-06-14T02:27:51.956Z,494.00
2023-06-14T02:28:51.937Z,496.00
2023-06-14T02:29:50.934Z,494.00
2023-06-14T02:30:50.909Z,495.00
2023-06-14T02:31:51.969Z,500.00
2023-06-14T02:32:51.951Z,492.00
2023-06-14T02:33:51.914Z,493.00
2023-06-14T02:34:51.889Z,496.00
2023-06-14T02:35:50.912Z,495.00
2023-06-14T02:36:50.894Z,495.00
2023-06-14T02:37:51.882Z,493.00
2023-06-14T02:38:51.900Z,495.00
2023-06-14T02:39:51.875Z,499.00
2023-06-14T02:40:51.848Z,502.00
2023-06-14T02:41:51.838Z,499.00
2023-06-14T02:42:51.856Z,506.00
2023-06-14T02:43:50.826Z,500.00
2023-06-14T02:44:51.823Z,496.00
2023-06-14T02:45:50.824Z,497.00
2023-06-14T02:46:51.847Z,494.00
2023-06-14T02:47:50.864Z,491.00
2023-06-14T02:48:51.856Z,487.00
2023-06-14T02:49:51.883Z,491.00
2023-06-14T02:50:50.909Z,491.00
2023-06-14T02:51:51.981Z,490.00
2023-06-14T02:52:51.044Z,489.00
2023-06-14T02:53:52.111Z,492.00
2023-06-14T02:54:52.122Z,489.00
2023-06-14T02:55:51.173Z,488.00
2023-06-14T02:56:52.213Z,489.00
2023-06-14T02:57:52.258Z,488.00
2023-06-14T02:58:52.321Z,493.00
2023-06-14T02:59:52.395Z,492.00
2023-06-14T03:00:51.407Z,494.00
2023-06-14T03:01:52.431Z,493.00
2023-06-14T03:02:51.561Z,492.00
2023-06-14T03:03:51.592Z,491.00
2023-06-14T03:04:51.554Z,493.00
2023-06-14T03:05:51.589Z,488.00
2023-06-14T03:06:52.626Z,488.00
2023-06-14T03:07:52.697Z,490.00
2023-06-14T03:08:51.678Z,490.00
2023-06-14T03:09:52.714Z,489.00
2023-06-14T03:10:52.752Z,489.00
2023-06-14T03:11:51.791Z,486.00
2023-06-14T03:12:52.829Z,489.00
2023-06-14T03:13:52.874Z,488.00
2023-06-14T03:14:52.885Z,481.00
2023-06-14T03:15:53.045Z,488.00
2023-06-14T03:16:52.987Z,488.00
2023-06-14T03:17:52.016Z,488.00
2023-06-14T03:18:53.206Z,489.00
2023-06-14T03:19:53.054Z,486.00
2023-06-14T03:20:53.093Z,482.00
2023-06-14T03:21:53.088Z,482.00
2023-06-14T03:22:53.121Z,481.00
2023-06-14T03:23:53.229Z,483.00
2023-06-14T03:24:53.136Z,488.00
2023-06-14T03:25:53.162Z,488.00
2023-06-14T03:26:53.180Z,491.00
2023-06-14T03:27:53.210Z,490.00
2023-06-14T03:28:53.236Z,488.00
2023-06-14T03:29:52.232Z,485.00
2023-06-14T03:30:52.259Z,486.00
2023-06-14T03:31:53.277Z,484.00
2023-06-14T03:32:53.301Z,488.00
2023-06-14T03:33:52.302Z,484.00
2023-06-14T03:34:53.297Z,485.00
2023-06-14T03:35:53.292Z,487.00
2023-06-14T03:36:53.299Z,485.00
2023-06-14T03:37:53.315Z,484.00
2023-06-14T03:38:52.327Z,484.00
2023-06-14T03:39:53.355Z,483.00
2023-06-14T03:40:53.324Z,484.00
2023-06-14T03:41:52.339Z,483.00
2023-06-14T03:42:53.345Z,483.00
2023-06-14T03:43:53.348Z,477.00
2023-06-14T03:44:53.334Z,483.00
2023-06-14T03:45:53.332Z,482.00
2023-06-14T03:46:53.360Z,481.00
2023-06-14T03:47:53.391Z,479.00
2023-06-14T03:48:53.365Z,479.00
2023-06-14T03:49:52.398Z,482.00
2023-06-14T03:50:53.381Z,479.00
2023-06-14T03:51:53.356Z,477.00
2023-06-14T03:52:52.368Z,481.00
2023-06-14T03:54:11.360Z,472.00
2023-06-14T03:56:52.333Z,482.00
2023-06-14T03:57:53.318Z,484.00
2023-06-14T03:58:53.320Z,484.00
2023-06-14T03:59:53.307Z,481.00
2023-06-14T04:00:53.294Z,482.00
2023-06-14T04:01:53.283Z,485.00
2023-06-14T04:02:53.388Z,485.00
2023-06-14T04:03:53.399Z,480.00
2023-06-14T04:04:53.265Z,483.00
2023-06-14T04:05:53.334Z,485.00
2023-06-14T04:06:53.280Z,487.00
2023-06-14T04:07:53.255Z,489.00
2023-06-14T04:08:53.254Z,489.00
2023-06-14T04:09:53.227Z,490.00
2023-06-14T04:10:52.216Z,478.00
2023-06-14T04:11:52.645Z,481.00
2023-06-14T04:12:53.262Z,481.00
2023-06-14T04:13:53.236Z,484.00
2023-06-14T04:14:53.340Z,487.00
2023-06-14T04:15:53.237Z,481.00
2023-06-14T04:16:53.276Z,484.00
2023-06-14T04:17:53.278Z,486.00
2023-06-14T04:18:53.223Z,484.00
2023-06-14T04:19:53.169Z,484.00
2023-06-14T04:20:53.165Z,483.00
2023-06-14T04:21:53.262Z,484.00
2023-06-14T04:22:53.166Z,487.00
2023-06-14T04:23:53.187Z,489.00
2023-06-14T04:24:57.677Z,489.00
2023-06-14T04:25:53.131Z,479.00
2023-06-14T04:26:52.132Z,483.00
2023-06-14T04:27:52.150Z,486.00
2023-06-14T04:28:52.107Z,487.00
2023-06-14T04:29:53.096Z,485.00
2023-06-14T04:30:52.111Z,490.00
2023-06-14T04:31:52.100Z,487.00
2023-06-14T04:32:53.181Z,489.00
2023-06-14T04:33:53.145Z,491.00
2023-06-14T04:34:53.073Z,490.00
2023-06-14T04:35:53.072Z,490.00
2023-06-14T04:36:53.061Z,488.00
2023-06-14T04:37:53.039Z,489.00
2023-06-14T04:38:53.047Z,491.00
2023-06-14T04:39:52.044Z,486.00
2023-06-14T04:40:53.045Z,487.00
2023-06-14T04:41:53.024Z,487.00
2023-06-14T04:42:53.045Z,488.00
2023-06-14T04:43:53.021Z,492.00
2023-06-14T04:44:51.999Z,493.00
2023-06-14T04:45:53.048Z,491.00
2023-06-14T04:46:52.986Z,490.00
2023-06-14T04:47:52.995Z,488.00
2023-06-14T04:48:52.997Z,492.00
2023-06-14T04:49:52.985Z,491.00
2023-06-14T04:50:52.961Z,490.00
2023-06-14T04:51:52.962Z,502.00
2023-06-14T04:52:52.955Z,486.00
2023-06-14T04:53:52.944Z,475.00
2023-06-14T04:54:52.944Z,477.00
2023-06-14T04:55:52.956Z,468.00
2023-06-14T04:56:51.935Z,472.00
2023-06-14T04:57:52.904Z,446.00
2023-06-14T04:58:52.912Z,494.00
2023-06-14T04:59:52.948Z,460.00
2023-06-14T05:00:52.929Z,467.00
2023-06-14T05:01:52.974Z,399.00
2023-06-14T05:02:52.140Z,546.00
2023-06-14T05:03:52.054Z,359.00
2023-06-14T05:04:52.055Z,446.00
2023-06-14T05:05:53.057Z,473.00
2023-06-14T05:06:53.134Z,287.00
2023-06-14T05:07:53.149Z,517.00
2023-06-14T05:08:53.152Z,496.00
2023-06-14T05:09:53.167Z,481.00
2023-06-14T05:10:52.234Z,478.00
2023-06-14T05:11:52.264Z,414.00
2023-06-14T05:12:53.314Z,478.00
2023-06-14T05:13:53.412Z,420.00
2023-06-14T05:14:53.424Z,400.00
2023-06-14T05:15:53.521Z,366.00
2023-06-14T05:16:53.509Z,481.00
2023-06-14T05:17:53.590Z,457.00
2023-06-14T05:18:53.624Z,390.00
2023-06-14T05:19:53.660Z,400.00
2023-06-14T05:20:52.662Z,446.00
2023-06-14T05:21:53.704Z,484.00
2023-06-14T05:22:53.725Z,485.00
2023-06-14T05:23:53.735Z,454.00
2023-06-14T05:24:53.729Z,442.00
2023-06-14T05:25:52.746Z,488.00
2023-06-14T05:26:53.809Z,455.00
2023-06-14T05:27:52.779Z,457.00
2023-06-14T05:28:53.841Z,428.00
2023-06-14T05:29:53.807Z,474.00
2023-06-14T05:30:53.826Z,489.00
2023-06-14T05:31:53.946Z,383.00
2023-06-14T05:32:53.920Z,465.00
2023-06-14T05:33:53.950Z,527.00
2023-06-14T05:34:53.934Z,515.00
2023-06-14T05:35:54.010Z,507.00
2023-06-14T05:36:54.025Z,432.00
2023-06-14T05:37:54.025Z,458.00
2023-06-14T05:38:54.070Z,485.00
2023-06-14T05:39:54.102Z,493.00
2023-06-14T05:40:54.129Z,502.00
2023-06-14T05:41:54.166Z,549.00
2023-06-14T05:42:54.198Z,548.00
2023-06-14T05:43:54.195Z,575.00
2023-06-14T05:44:53.229Z,619.00
2023-06-14T05:45:54.246Z,621.00
2023-06-14T05:46:54.418Z,586.00
2023-06-14T05:47:53.422Z,806.00
2023-06-14T05:48:54.373Z,708.00
2023-06-14T05:49:54.399Z,728.00
2023-06-14T05:50:54.385Z,737.00
2023-06-14T05:51:53.428Z,877.00
2023-06-14T05:52:54.476Z,681.00
2023-06-14T05:53:54.526Z,747.00
2023-06-14T05:54:54.600Z,799.00
2023-06-14T05:55:54.588Z,799.00
2023-06-14T05:56:54.626Z,829.00
2023-06-14T05:57:54.658Z,815.00
2023-06-14T05:58:53.727Z,793.00
2023-06-14T05:59:53.698Z,757.00
2023-06-14T06:00:53.721Z,831.00
2023-06-14T06:01:53.755Z,788.00
2023-06-14T06:02:54.836Z,810.00
2023-06-14T06:03:55.238Z,842.00
2023-06-14T06:04:53.735Z,718.00
2023-06-14T06:05:54.798Z,770.00
2023-06-14T06:06:53.794Z,747.00
2023-06-14T06:07:53.797Z,743.00
2023-06-14T06:08:54.827Z,733.00
2023-06-14T06:09:54.878Z,742.00
2023-06-14T06:10:54.930Z,745.00
2023-06-14T06:11:55.011Z,809.00
2023-06-14T06:12:54.976Z,841.00
2023-06-14T06:13:54.996Z,831.00
2023-06-14T06:14:54.002Z,848.00
2023-06-14T06:15:55.005Z,844.00
2023-06-14T06:16:55.128Z,852.00
2023-06-14T06:17:56.482Z,873.00
2023-06-14T06:18:55.112Z,919.00
2023-06-14T06:19:55.127Z,931.00
2023-06-14T06:20:55.165Z,890.00
2023-06-14T06:21:55.091Z,973.00
2023-06-14T06:22:55.088Z,937.00
2023-06-14T06:23:55.111Z,964.00
2023-06-14T06:24:55.124Z,911.00
2023-06-14T06:25:55.070Z,929.00
2023-06-14T06:26:55.091Z,936.00
2023-06-14T06:27:55.037Z,936.00
2023-06-14T06:28:55.069Z,978.00
2023-06-14T06:29:55.029Z,960.00
2023-06-14T06:30:55.054Z,998.00
2023-06-14T06:31:55.046Z,984.00
2023-06-14T06:32:55.072Z,989.00
2023-06-14T06:33:54.991Z,982.00
2023-06-14T06:34:54.985Z,1036.00
2023-06-14T06:35:54.011Z,1016.00
2023-06-14T06:36:55.015Z,1016.00
2023-06-14T06:37:54.980Z,1049.00
2023-06-14T06:38:53.957Z,1055.00
2023-06-14T06:39:55.020Z,1044.00
2023-06-14T06:40:54.951Z,1045.00
2023-06-14T06:41:53.961Z,1037.00
2023-06-14T06:42:54.929Z,1046.00
2023-06-14T06:43:54.936Z,1066.00
2023-06-14T06:44:54.930Z,1192.00
2023-06-14T06:45:54.976Z,1135.00
2023-06-14T06:46:54.928Z,1115.00
2023-06-14T06:47:54.946Z,1114.00
2023-06-14T06:48:54.890Z,1196.00
2023-06-14T06:49:54.906Z,1172.00
2023-06-14T06:50:54.876Z,1153.00
2023-06-14T06:51:54.910Z,1150.00
2023-06-14T06:52:54.895Z,1278.00
2023-06-14T06:53:53.869Z,1255.00
2023-06-14T06:54:54.963Z,1260.00
2023-06-14T06:55:54.894Z,1285.00
2023-06-14T06:56:54.840Z,1278.00
2023-06-14T06:57:54.988Z,1279.00
2023-06-14T06:58:53.815Z,1266.00
2023-06-14T06:59:54.849Z,1255.00
2023-06-14T07:00:54.812Z,1250.00
2023-06-14T07:01:55.197Z,1241.00
2023-06-14T07:02:54.941Z,1247.00
2023-06-14T07:03:54.962Z,1248.00
2023-06-14T07:04:55.005Z,1249.00
2023-06-14T07:05:54.070Z,1248.00
2023-06-14T07:06:55.070Z,1245.00
2023-06-14T07:07:57.769Z,1241.00
2023-06-14T07:08:55.165Z,1240.00
2023-06-14T07:09:55.120Z,1239.00
2023-06-14T07:10:55.121Z,1224.00
2023-06-14T07:11:55.109Z,1207.00
2023-06-14T07:12:55.165Z,1212.00
2023-06-14T07:13:54.091Z,1221.00
2023-06-14T07:14:55.155Z,1225.00
2023-06-14T07:15:55.092Z,1219.00
2023-06-14T07:16:55.077Z,1206.00
2023-06-14T07:17:55.083Z,1210.00
2023-06-14T07:18:55.067Z,1205.00
2023-06-14T07:19:55.081Z,1205.00
2023-06-14T07:20:54.046Z,1203.00
2023-06-14T07:21:55.028Z,1206.00
2023-06-14T07:22:55.038Z,1202.00
2023-06-14T07:23:55.058Z,1190.00
2023-06-14T07:24:55.020Z,1183.00
2023-06-14T07:25:55.007Z,1182.00
2023-06-14T07:26:55.023Z,1182.00
2023-06-14T07:27:54.997Z,1184.00
2023-06-14T07:28:54.997Z,1172.00
2023-06-14T07:29:53.983Z,1181.00
2023-06-14T07:30:54.979Z,1178.00
2023-06-14T07:31:53.954Z,1172.00
2023-06-14T07:32:55.043Z,1170.00
2023-06-14T07:33:54.110Z,1170.00
2023-06-14T07:34:54.999Z,1171.00
2023-06-14T07:35:54.938Z,1168.00
2023-06-14T07:36:53.932Z,1169.00
2023-06-14T07:37:54.929Z,1167.00
2023-06-14T07:38:53.952Z,1165.00
2023-06-14T07:39:54.945Z,1156.00
2023-06-14T07:40:54.907Z,1162.00
2023-06-14T07:41:54.957Z,1158.00
2023-06-14T07:42:54.885Z,1155.00
2023-06-14T07:43:54.907Z,1151.00
2023-06-14T07:44:54.900Z,1148.00
2023-06-14T07:46:06.255Z,1149.00
2023-06-14T07:46:54.877Z,1150.00
2023-06-14T07:47:53.931Z,1228.00
2023-06-14T07:48:54.990Z,1015.00
2023-06-14T07:49:54.973Z,914.00
2023-06-14T07:50:54.855Z,854.00
2023-06-14T07:51:53.827Z,789.00
2023-06-14T07:52:54.835Z,706.00
2023-06-14T07:53:54.823Z,680.00
2023-06-14T07:54:54.840Z,707.00
2023-06-14T07:55:54.873Z,646.00
2023-06-14T07:56:54.813Z,621.00
2023-06-14T07:57:53.783Z,609.00
2023-06-14T07:58:54.766Z,602.00
2023-06-14T07:59:54.774Z,596.00
2023-06-14T08:00:53.759Z,570.00
2023-06-14T08:01:54.781Z,526.00
2023-06-14T08:02:58.308Z,534.00
2023-06-14T08:03:54.857Z,538.00
2023-06-14T08:04:53.781Z,541.00
2023-06-14T08:05:54.763Z,531.00
2023-06-14T08:06:54.843Z,516.00
2023-06-14T08:07:54.718Z,512.00
2023-06-14T08:08:54.711Z,528.00
2023-06-14T08:09:54.702Z,514.00
2023-06-14T08:10:54.691Z,539.00
2023-06-14T08:11:54.712Z,524.00
2023-06-14T08:12:54.691Z,518.00
2023-06-14T08:13:54.683Z,498.00
2023-06-14T08:15:08.723Z,495.00
2023-06-14T08:15:54.697Z,485.00
2023-06-14T08:16:54.662Z,505.00
2023-06-14T08:17:54.744Z,486.00
2023-06-14T08:18:54.649Z,521.00
2023-06-14T08:19:53.666Z,489.00
2023-06-14T08:20:54.628Z,494.00
2023-06-14T08:21:54.623Z,493.00
2023-06-14T08:22:53.675Z,493.00
2023-06-14T08:23:54.660Z,505.00
2023-06-14T08:24:54.618Z,505.00
2023-06-14T08:25:54.615Z,556.00
2023-06-14T08:26:54.617Z,505.00
2023-06-14T08:27:53.652Z,508.00
2023-06-14T08:28:53.604Z,507.00
2023-06-14T08:29:54.594Z,514.00
2023-06-14T08:30:54.608Z,511.00
2023-06-14T08:31:54.566Z,496.00
2023-06-14T08:33:10.414Z,508.00
2023-06-14T08:33:54.626Z,521.00
2023-06-14T08:35:04.890Z,532.00
2023-06-14T08:35:54.524Z,527.00
2023-06-14T08:36:54.510Z,537.00
2023-06-14T08:37:54.504Z,426.00
2023-06-14T08:38:54.505Z,531.00
2023-06-14T08:39:54.516Z,490.00
2023-06-14T08:40:53.487Z,488.00
2023-06-14T08:41:54.476Z,512.00
2023-06-14T08:42:54.474Z,474.00
2023-06-14T08:43:53.486Z,472.00
2023-06-14T08:44:53.487Z,474.00
2023-06-14T08:45:54.458Z,464.00
2023-06-14T08:46:54.458Z,451.00
2023-06-14T08:47:54.578Z,458.00
2023-06-14T08:48:54.445Z,498.00
2023-06-14T08:49:54.496Z,471.00
2023-06-14T08:50:55.673Z,449.00
2023-06-14T08:51:54.421Z,481.00
2023-06-14T08:52:53.397Z,459.00
2023-06-14T08:53:54.404Z,458.00
2023-06-14T08:54:54.443Z,439.00
2023-06-14T08:55:53.504Z,415.00
2023-06-14T08:56:54.519Z,451.00
2023-06-14T08:57:54.572Z,469.00
2023-06-14T08:58:54.590Z,459.00
2023-06-14T08:59:54.048Z,439.00
2023-06-14T09:00:54.685Z,478.00
2023-06-14T09:02:08.163Z,434.00
2023-06-14T09:02:54.687Z,439.00
2023-06-14T09:03:54.776Z,451.00
2023-06-14T09:04:54.664Z,418.00
2023-06-14T09:05:54.659Z,459.00
2023-06-14T09:06:53.643Z,414.00
2023-06-14T09:07:54.638Z,439.00
2023-06-14T09:08:54.633Z,427.00
2023-06-14T09:10:06.681Z,373.00
2023-06-14T09:10:54.664Z,437.00
2023-06-14T09:11:54.619Z,418.00
2023-06-14T09:12:53.600Z,430.00
2023-06-14T09:13:53.613Z,445.00
2023-06-14T09:14:54.581Z,415.00
2023-06-14T09:15:54.656Z,423.00
2023-06-14T09:16:53.603Z,409.00
2023-06-14T09:17:53.569Z,425.00
2023-06-14T09:18:54.564Z,415.00
2023-06-14T09:19:54.604Z,399.00
2023-06-14T09:20:53.545Z,454.00
2023-06-14T09:21:54.544Z,424.00
2023-06-14T09:22:54.519Z,406.00
2023-06-14T09:23:54.583Z,450.00
2023-06-14T09:24:54.520Z,413.00
2023-06-14T09:25:54.499Z,378.00
2023-06-14T09:26:54.516Z,422.00
2023-06-14T09:27:54.508Z,434.00
2023-06-14T09:28:54.495Z,407.00
2023-06-14T09:29:54.518Z,415.00
2023-06-14T09:30:54.497Z,327.00
2023-06-14T09:31:54.500Z,453.00
2023-06-14T09:32:54.538Z,427.00
2023-06-14T09:33:53.476Z,418.00
2023-06-14T09:34:54.479Z,404.00
2023-06-14T09:35:53.513Z,405.00
2023-06-14T09:36:54.435Z,390.00
2023-06-14T09:37:54.425Z,406.00
2023-06-14T09:38:53.423Z,408.00
2023-06-14T09:39:54.457Z,395.00
2023-06-14T09:40:54.003Z,397.00
2023-06-14T09:41:54.393Z,413.00
2023-06-14T09:42:54.424Z,391.00
2023-06-14T09:43:54.452Z,383.00
2023-06-14T09:44:54.488Z,456.00
2023-06-14T09:45:54.580Z,386.00
2023-06-14T09:46:53.558Z,434.00
2023-06-14T09:48:53.617Z,377.00
2023-06-14T09:49:54.050Z,465.00
2023-06-14T09:50:54.599Z,614.00
2023-06-14T09:51:54.606Z,557.00
2023-06-14T09:52:54.600Z,643.00
2023-06-14T09:53:54.595Z,723.00
2023-06-14T09:54:54.568Z,575.00
2023-06-14T09:55:54.600Z,631.00
2023-06-14T09:56:54.538Z,487.00
2023-06-14T09:57:54.545Z,537.00
2023-06-14T09:59:07.052Z,647.00
2023-06-14T09:59:54.541Z,524.00
2023-06-14T10:00:54.497Z,621.00
2023-06-14T10:01:54.529Z,698.00
2023-06-14T10:02:54.531Z,607.00
2023-06-14T10:04:07.037Z,560.00
2023-06-14T10:04:54.636Z,448.00
2023-06-14T10:05:54.493Z,499.00
2023-06-14T10:06:54.521Z,442.00
2023-06-14T10:07:54.463Z,528.00
2023-06-14T10:08:54.458Z,592.00
2023-06-14T10:09:54.482Z,552.00
2023-06-14T10:10:54.497Z,489.00
2023-06-14T10:11:53.455Z,498.00
2023-06-14T10:12:54.442Z,577.00
2023-06-14T10:13:54.424Z,494.00
2023-06-14T10:14:53.412Z,536.00
2023-06-14T10:15:54.517Z,496.00
2023-06-14T10:16:54.545Z,511.00
2023-06-14T10:17:54.447Z,439.00
2023-06-14T10:18:53.407Z,521.00
2023-06-14T10:19:53.603Z,529.00
2023-06-14T10:20:54.375Z,684.00
2023-06-14T10:21:53.362Z,531.00
2023-06-14T10:22:54.356Z,712.00
2023-06-14T10:23:54.430Z,533.00
2023-06-14T10:24:54.343Z,503.00
2023-06-14T10:25:54.336Z,500.00
2023-06-14T10:26:53.336Z,501.00
2023-06-14T10:27:54.359Z,595.00
2023-06-14T10:28:54.373Z,523.00
2023-06-14T10:29:54.348Z,544.00
2023-06-14T10:30:54.305Z,560.00
2023-06-14T10:31:54.360Z,509.00
2023-06-14T10:32:54.358Z,505.00
2023-06-14T10:33:54.275Z,483.00
2023-06-14T10:34:53.282Z,556.00
2023-06-14T10:35:54.581Z,455.00
2023-06-14T10:36:53.362Z,517.00
2023-06-14T10:37:53.424Z,572.00
2023-06-14T10:38:54.422Z,648.00
2023-06-14T10:39:54.531Z,599.00
2023-06-14T10:40:53.573Z,661.00
2023-06-14T10:41:54.601Z,587.00
2023-06-14T10:42:54.738Z,580.00
2023-06-14T10:43:54.691Z,503.00
2023-06-14T10:44:55.027Z,512.00
2023-06-14T10:45:54.765Z,504.00
2023-06-14T10:46:54.839Z,611.00
2023-06-14T10:47:56.609Z,598.00
2023-06-14T10:48:54.851Z,558.00
2023-06-14T10:49:54.849Z,592.00
2023-06-14T10:50:54.832Z,562.00
2023-06-14T10:51:54.866Z,551.00
2023-06-14T10:52:54.819Z,560.00
2023-06-14T10:53:54.827Z,564.00
2023-06-14T10:54:53.812Z,528.00
2023-06-14T10:55:54.784Z,617.00
2023-06-14T10:56:54.789Z,553.00
2023-06-14T10:57:55.313Z,596.00
2023-06-14T10:58:54.801Z,526.00
2023-06-14T10:59:54.778Z,507.00
2023-06-14T11:00:54.779Z,507.00
2023-06-14T11:01:53.798Z,695.00
2023-06-14T11:02:53.772Z,528.00
2023-06-14T11:03:54.789Z,663.00
2023-06-14T11:04:54.729Z,592.00
2023-06-14T11:05:54.763Z,684.00
2023-06-14T11:06:54.728Z,576.00
2023-06-14T11:07:54.732Z,524.00
2023-06-14T11:08:53.696Z,647.00
2023-06-14T11:09:54.687Z,534.00
2023-06-14T11:10:54.740Z,629.00
2023-06-14T11:11:54.680Z,535.00
2023-06-14T11:12:54.666Z,571.00
2023-06-14T11:13:53.708Z,532.00
2023-06-14T11:14:54.654Z,577.00
2023-06-14T11:15:54.724Z,734.00
2023-06-14T11:16:53.645Z,694.00
2023-06-14T11:17:54.705Z,665.00
2023-06-14T11:18:54.684Z,868.00
2023-06-14T11:19:54.704Z,736.00
2023-06-14T11:20:54.734Z,1082.00
2023-06-14T11:21:54.780Z,1179.00
2023-06-14T11:22:54.807Z,907.00
2023-06-14T11:23:54.893Z,800.00
2023-06-14T11:24:54.834Z,886.00
2023-06-14T11:25:55.571Z,683.00
2023-06-14T11:26:53.949Z,621.00
2023-06-14T11:27:54.013Z,613.00
2023-06-14T11:28:54.957Z,605.00
2023-06-14T11:29:54.975Z,614.00
2023-06-14T11:30:54.962Z,547.00
2023-06-14T11:31:55.053Z,471.00
2023-06-14T11:32:58.318Z,523.00
2023-06-14T11:33:54.065Z,575.00
2023-06-14T11:34:55.101Z,544.00
2023-06-14T11:35:54.061Z,554.00
2023-06-14T11:36:55.080Z,578.00
2023-06-14T11:37:55.048Z,513.00
2023-06-14T11:38:56.025Z,507.00
2023-06-14T11:39:55.108Z,513.00
2023-06-14T11:40:55.055Z,508.00
2023-06-14T11:41:55.018Z,502.00
2023-06-14T11:42:54.032Z,477.00
2023-06-14T11:43:54.997Z,467.00
2023-06-14T11:45:00.945Z,461.00
2023-06-14T11:46:07.369Z,459.00
2023-06-14T11:46:54.979Z,453.00
2023-06-14T11:47:55.013Z,455.00
2023-06-14T11:48:54.980Z,454.00
2023-06-14T11:49:55.006Z,457.00
2023-06-14T11:50:54.948Z,456.00
2023-06-14T11:51:54.942Z,451.00
2023-06-14T11:52:54.938Z,457.00
2023-06-14T11:53:54.922Z,455.00
2023-06-14T11:54:54.930Z,451.00
2023-06-14T11:55:54.951Z,452.00
2023-06-14T11:56:54.906Z,456.00
2023-06-14T11:57:53.907Z,502.00
2023-06-14T11:58:54.889Z,486.00
2023-06-14T11:59:54.888Z,466.00
2023-06-14T12:00:54.882Z,460.00
2023-06-14T12:01:54.929Z,452.00
2023-06-14T12:02:54.984Z,452.00
2023-06-14T12:03:54.865Z,454.00
2023-06-14T12:04:54.844Z,450.00
2023-06-14T12:05:54.898Z,451.00
2023-06-14T12:06:54.838Z,448.00
2023-06-14T12:07:54.829Z,449.00
2023-06-14T12:08:54.816Z,447.00
2023-06-14T12:09:54.850Z,443.00
2023-06-14T12:10:54.793Z,435.00
2023-06-14T12:11:53.835Z,431.00
2023-06-14T12:12:54.780Z,432.00
2023-06-14T12:13:53.776Z,432.00
2023-06-14T12:14:54.773Z,435.00
2023-06-14T12:15:53.773Z,434.00
2023-06-14T12:16:54.882Z,432.00
2023-06-14T12:17:54.783Z,431.00
2023-06-14T12:18:53.768Z,432.00
2023-06-14T12:19:54.770Z,433.00
2023-06-14T12:20:54.753Z,432.00
2023-06-14T12:21:54.728Z,433.00
2023-06-14T12:22:53.765Z,434.00
2023-06-14T12:23:53.888Z,433.00
2023-06-14T12:24:53.851Z,433.00
2023-06-14T12:25:54.870Z,442.00
2023-06-14T12:26:54.932Z,440.00
2023-06-14T12:27:54.023Z,443.00
2023-06-14T12:28:54.957Z,440.00
2023-06-14T12:29:54.976Z,458.00